sensor_id;sensor_type;location;lat;lon;timestamp;P1;durP1;ratioP1;P2;durP2;ratioP2
12267;SDS011;6196;48.398;11.736;2023-03-26T00:01:27;5.20;;;1.10;;
12267;SDS011;6196;48.398;11.736;2023-03-26T00:03:58;1.83;;;0.90;;
12267;SDS011;6196;48.398;11.736;2023-03-26T00:06:27;1.57;;;0.80;;
12267;SDS011;6196;48.398;11.736;2023-03-26T00:08:57;1.90;;;0.73;;
12267;SDS011;6196;48.398;11.736;2023-03-26T00:11:24;2.50;;;1.00;;
12267;SDS011;6196;48.398;11.736;2023-03-26T00:13:54;2.90;;;1.23;;
12267;SDS011;6196;48.398;11.736;2023-03-26T00:16:23;3.43;;;1.00;;
12267;SDS011;6196;48.398;11.736;2023-03-26T00:18:56;1.93;;;0.90;;
12267;SDS011;6196;48.398;11.736;2023-03-26T00:21:25;1.03;;;0.90;;
12267;SDS011;6196;48.398;11.736;2023-03-26T00:23:55;1.33;;;1.10;;
12267;SDS011;6196;48.398;11.736;2023-03-26T00:26:27;1.87;;;0.87;;
12267;SDS011;6196;48.398;11.736;2023-03-26T00:28:56;1.70;;;1.00;;
12267;SDS011;6196;48.398;11.736;2023-03-26T00:31:25;1.87;;;0.73;;
12267;SDS011;6196;48.398;11.736;2023-03-26T00:33:52;1.50;;;0.97;;
12267;SDS011;6196;48.398;11.736;2023-03-26T00:36:21;2.13;;;0.80;;
12267;SDS011;6196;48.398;11.736;2023-03-26T00:38:51;3.20;;;0.80;;
12267;SDS011;6196;48.398;11.736;2023-03-26T00:41:21;2.17;;;1.03;;
12267;SDS011;6196;48.398;11.736;2023-03-26T00:43:52;1.30;;;0.90;;
12267;SDS011;6196;48.398;11.736;2023-03-26T00:46:26;2.40;;;1.00;;
12267;SDS011;6196;48.398;11.736;2023-03-26T00:48:55;1.27;;;0.80;;
12267;SDS011;6196;48.398;11.736;2023-03-26T00:51:24;2.40;;;1.13;;
12267;SDS011;6196;48.398;11.736;2023-03-26T00:53:52;1.27;;;0.90;;
12267;SDS011;6196;48.398;11.736;2023-03-26T00:56:20;1.67;;;1.00;;
12267;SDS011;6196;48.398;11.736;2023-03-26T00:58:46;3.33;;;1.10;;
12267;SDS011;6196;48.398;11.736;2023-03-26T01:01:17;2.67;;;1.20;;
12267;SDS011;6196;48.398;11.736;2023-03-26T01:03:54;2.60;;;1.10;;
12267;SDS011;6196;48.398;11.736;2023-03-26T01:06:35;1.83;;;1.00;;
12267;SDS011;6196;48.398;11.736;2023-03-26T01:09:13;1.60;;;1.00;;
12267;SDS011;6196;48.398;11.736;2023-03-26T01:11:43;2.03;;;1.00;;
12267;SDS011;6196;48.398;11.736;2023-03-26T01:14:12;4.67;;;1.10;;
12267;SDS011;6196;48.398;11.736;2023-03-26T01:16:48;3.57;;;1.30;;
12267;SDS011;6196;48.398;11.736;2023-03-26T01:22:12;3.10;;;1.23;;
12267;SDS011;6196;48.398;11.736;2023-03-26T01:24:43;5.53;;;1.53;;
12267;SDS011;6196;48.398;11.736;2023-03-26T01:33:08;2.40;;;1.10;;
12267;SDS011;6196;48.398;11.736;2023-03-26T01:35:46;3.20;;;1.10;;
12267;SDS011;6196;48.398;11.736;2023-03-26T01:41:38;2.80;;;1.20;;
12267;SDS011;6196;48.398;11.736;2023-03-26T01:44:22;2.67;;;1.00;;
12267;SDS011;6196;48.398;11.736;2023-03-26T01:47:07;2.50;;;1.23;;
12267;SDS011;6196;48.398;11.736;2023-03-26T01:49:36;1.87;;;1.00;;
12267;SDS011;6196;48.398;11.736;2023-03-26T01:52:05;4.13;;;1.10;;
12267;SDS011;6196;48.398;11.736;2023-03-26T01:54:39;2.20;;;1.20;;
12267;SDS011;6196;48.398;11.736;2023-03-26T01:57:22;4.37;;;0.97;;
12267;SDS011;6196;48.398;11.736;2023-03-26T02:00:17;1.27;;;0.83;;
12267;SDS011;6196;48.398;11.736;2023-03-26T02:05:48;3.10;;;1.10;;
12267;SDS011;6196;48.398;11.736;2023-03-26T02:08:44;3.93;;;1.23;;
12267;SDS011;6196;48.398;11.736;2023-03-26T02:11:23;2.60;;;1.23;;
12267;SDS011;6196;48.398;11.736;2023-03-26T02:14:00;3.57;;;1.20;;
12267;SDS011;6196;48.398;11.736;2023-03-26T02:16:31;3.20;;;1.27;;
12267;SDS011;6196;48.398;11.736;2023-03-26T02:18:58;3.90;;;1.20;;
12267;SDS011;6196;48.398;11.736;2023-03-26T02:21:25;4.47;;;1.30;;
12267;SDS011;6196;48.398;11.736;2023-03-26T02:23:54;5.23;;;1.23;;
12267;SDS011;6196;48.398;11.736;2023-03-26T02:26:30;2.80;;;1.00;;
12267;SDS011;6196;48.398;11.736;2023-03-26T02:28:59;3.40;;;1.20;;
12267;SDS011;6196;48.398;11.736;2023-03-26T02:31:29;4.70;;;1.30;;
12267;SDS011;6196;48.398;11.736;2023-03-26T02:33:56;4.10;;;1.20;;
12267;SDS011;6196;48.398;11.736;2023-03-26T02:36:23;3.13;;;1.20;;
12267;SDS011;6196;48.398;11.736;2023-03-26T02:38:53;3.83;;;1.00;;
12267;SDS011;6196;48.398;11.736;2023-03-26T02:41:23;3.60;;;1.20;;
12267;SDS011;6196;48.398;11.736;2023-03-26T02:43:49;3.13;;;1.20;;
12267;SDS011;6196;48.398;11.736;2023-03-26T02:46:16;3.60;;;1.37;;
12267;SDS011;6196;48.398;11.736;2023-03-26T02:48:43;3.27;;;1.43;;
12267;SDS011;6196;48.398;11.736;2023-03-26T02:51:10;5.70;;;1.80;;
12267;SDS011;6196;48.398;11.736;2023-03-26T02:53:37;3.03;;;0.90;;
12267;SDS011;6196;48.398;11.736;2023-03-26T02:56:04;4.33;;;1.30;;
12267;SDS011;6196;48.398;11.736;2023-03-26T02:58:32;3.03;;;1.20;;
12267;SDS011;6196;48.398;11.736;2023-03-26T03:00:58;3.03;;;1.10;;
12267;SDS011;6196;48.398;11.736;2023-03-26T03:03:28;2.57;;;1.00;;
12267;SDS011;6196;48.398;11.736;2023-03-26T03:05:55;7.97;;;1.47;;
12267;SDS011;6196;48.398;11.736;2023-03-26T03:08:24;3.70;;;1.37;;
12267;SDS011;6196;48.398;11.736;2023-03-26T03:11:09;7.40;;;1.40;;
12267;SDS011;6196;48.398;11.736;2023-03-26T03:13:42;3.83;;;1.30;;
12267;SDS011;6196;48.398;11.736;2023-03-26T03:16:10;2.13;;;1.20;;
12267;SDS011;6196;48.398;11.736;2023-03-26T03:18:36;5.23;;;1.33;;
12267;SDS011;6196;48.398;11.736;2023-03-26T03:21:04;2.77;;;1.30;;
12267;SDS011;6196;48.398;11.736;2023-03-26T03:23:31;4.17;;;1.33;;
12267;SDS011;6196;48.398;11.736;2023-03-26T03:25:58;3.53;;;1.20;;
12267;SDS011;6196;48.398;11.736;2023-03-26T03:28:25;3.70;;;1.13;;
12267;SDS011;6196;48.398;11.736;2023-03-26T03:30:52;3.07;;;1.33;;
12267;SDS011;6196;48.398;11.736;2023-03-26T03:33:19;3.40;;;1.10;;
12267;SDS011;6196;48.398;11.736;2023-03-26T03:35:47;2.53;;;1.13;;
12267;SDS011;6196;48.398;11.736;2023-03-26T03:38:15;4.03;;;1.37;;
12267;SDS011;6196;48.398;11.736;2023-03-26T03:40:42;3.53;;;1.23;;
12267;SDS011;6196;48.398;11.736;2023-03-26T03:43:09;4.17;;;1.20;;
12267;SDS011;6196;48.398;11.736;2023-03-26T03:45:36;3.03;;;1.20;;
12267;SDS011;6196;48.398;11.736;2023-03-26T03:48:03;4.10;;;1.37;;
12267;SDS011;6196;48.398;11.736;2023-03-26T03:50:31;4.70;;;1.53;;
12267;SDS011;6196;48.398;11.736;2023-03-26T03:53:01;2.87;;;1.37;;
12267;SDS011;6196;48.398;11.736;2023-03-26T03:55:30;3.63;;;1.17;;
12267;SDS011;6196;48.398;11.736;2023-03-26T03:57:57;4.87;;;1.20;;
12267;SDS011;6196;48.398;11.736;2023-03-26T04:00:24;2.53;;;1.20;;
12267;SDS011;6196;48.398;11.736;2023-03-26T04:02:51;3.13;;;1.20;;
12267;SDS011;6196;48.398;11.736;2023-03-26T04:05:19;4.80;;;1.10;;
12267;SDS011;6196;48.398;11.736;2023-03-26T04:07:46;3.17;;;1.20;;
12267;SDS011;6196;48.398;11.736;2023-03-26T04:10:13;4.43;;;1.43;;
12267;SDS011;6196;48.398;11.736;2023-03-26T04:12:41;4.47;;;1.20;;
12267;SDS011;6196;48.398;11.736;2023-03-26T04:15:08;3.60;;;1.30;;
12267;SDS011;6196;48.398;11.736;2023-03-26T04:17:35;2.50;;;1.10;;
12267;SDS011;6196;48.398;11.736;2023-03-26T04:20:11;5.43;;;1.10;;
12267;SDS011;6196;48.398;11.736;2023-03-26T04:22:41;4.30;;;1.40;;
12267;SDS011;6196;48.398;11.736;2023-03-26T04:25:09;2.40;;;1.13;;
12267;SDS011;6196;48.398;11.736;2023-03-26T04:27:38;2.57;;;1.13;;
12267;SDS011;6196;48.398;11.736;2023-03-26T04:30:09;2.43;;;1.20;;
12267;SDS011;6196;48.398;11.736;2023-03-26T04:32:40;1.47;;;1.10;;
12267;SDS011;6196;48.398;11.736;2023-03-26T04:35:10;4.50;;;1.50;;
12267;SDS011;6196;48.398;11.736;2023-03-26T04:37:39;3.87;;;1.10;;
12267;SDS011;6196;48.398;11.736;2023-03-26T04:40:13;2.43;;;1.00;;
12267;SDS011;6196;48.398;11.736;2023-03-26T04:42:43;3.20;;;1.20;;
12267;SDS011;6196;48.398;11.736;2023-03-26T04:45:13;2.77;;;1.07;;
12267;SDS011;6196;48.398;11.736;2023-03-26T04:47:47;4.03;;;1.20;;
12267;SDS011;6196;48.398;11.736;2023-03-26T04:50:15;4.13;;;1.80;;
12267;SDS011;6196;48.398;11.736;2023-03-26T04:52:42;3.07;;;1.20;;
12267;SDS011;6196;48.398;11.736;2023-03-26T04:55:13;2.97;;;1.03;;
12267;SDS011;6196;48.398;11.736;2023-03-26T04:57:52;4.53;;;1.07;;
12267;SDS011;6196;48.398;11.736;2023-03-26T05:00:21;3.10;;;1.10;;
12267;SDS011;6196;48.398;11.736;2023-03-26T05:02:48;2.87;;;1.00;;
12267;SDS011;6196;48.398;11.736;2023-03-26T05:05:16;5.80;;;1.37;;
12267;SDS011;6196;48.398;11.736;2023-03-26T05:07:43;3.30;;;1.20;;
12267;SDS011;6196;48.398;11.736;2023-03-26T05:10:11;3.80;;;1.30;;
12267;SDS011;6196;48.398;11.736;2023-03-26T05:12:40;2.63;;;1.23;;
12267;SDS011;6196;48.398;11.736;2023-03-26T05:15:07;3.40;;;1.17;;
12267;SDS011;6196;48.398;11.736;2023-03-26T05:17:36;2.43;;;1.17;;
12267;SDS011;6196;48.398;11.736;2023-03-26T05:20:28;2.70;;;1.20;;
12267;SDS011;6196;48.398;11.736;2023-03-26T05:22:55;3.90;;;1.60;;
12267;SDS011;6196;48.398;11.736;2023-03-26T05:25:22;2.70;;;1.40;;
12267;SDS011;6196;48.398;11.736;2023-03-26T05:27:49;5.63;;;2.10;;
12267;SDS011;6196;48.398;11.736;2023-03-26T05:30:17;5.47;;;2.27;;
12267;SDS011;6196;48.398;11.736;2023-03-26T05:32:47;9.57;;;4.10;;
12267;SDS011;6196;48.398;11.736;2023-03-26T05:35:15;13.60;;;7.10;;
12267;SDS011;6196;48.398;11.736;2023-03-26T05:37:43;15.07;;;7.13;;
12267;SDS011;6196;48.398;11.736;2023-03-26T05:40:11;10.87;;;5.40;;
12267;SDS011;6196;48.398;11.736;2023-03-26T05:42:42;9.40;;;5.00;;
12267;SDS011;6196;48.398;11.736;2023-03-26T05:45:09;11.33;;;4.77;;
12267;SDS011;6196;48.398;11.736;2023-03-26T05:47:39;8.47;;;3.50;;
12267;SDS011;6196;48.398;11.736;2023-03-26T05:50:06;8.03;;;3.50;;
12267;SDS011;6196;48.398;11.736;2023-03-26T05:52:34;13.73;;;7.80;;
12267;SDS011;6196;48.398;11.736;2023-03-26T05:55:01;18.93;;;10.43;;
12267;SDS011;6196;48.398;11.736;2023-03-26T05:57:29;16.60;;;9.27;;
12267;SDS011;6196;48.398;11.736;2023-03-26T05:59:56;13.57;;;8.03;;
12267;SDS011;6196;48.398;11.736;2023-03-26T06:02:23;12.43;;;7.37;;
12267;SDS011;6196;48.398;11.736;2023-03-26T06:04:50;8.37;;;5.40;;
12267;SDS011;6196;48.398;11.736;2023-03-26T06:07:17;10.60;;;5.20;;
12267;SDS011;6196;48.398;11.736;2023-03-26T06:09:45;7.47;;;4.40;;
12267;SDS011;6196;48.398;11.736;2023-03-26T06:12:11;8.93;;;5.10;;
12267;SDS011;6196;48.398;11.736;2023-03-26T06:14:39;9.63;;;5.20;;
12267;SDS011;6196;48.398;11.736;2023-03-26T06:17:08;7.93;;;4.30;;
12267;SDS011;6196;48.398;11.736;2023-03-26T06:19:35;7.43;;;4.57;;
12267;SDS011;6196;48.398;11.736;2023-03-26T06:22:03;8.33;;;3.53;;
12267;SDS011;6196;48.398;11.736;2023-03-26T06:24:30;6.43;;;2.90;;
12267;SDS011;6196;48.398;11.736;2023-03-26T06:26:58;6.87;;;2.70;;
12267;SDS011;6196;48.398;11.736;2023-03-26T06:29:25;4.67;;;2.57;;
12267;SDS011;6196;48.398;11.736;2023-03-26T06:31:52;5.57;;;2.93;;
12267;SDS011;6196;48.398;11.736;2023-03-26T06:34:19;5.43;;;2.30;;
12267;SDS011;6196;48.398;11.736;2023-03-26T06:36:46;2.67;;;2.03;;
12267;SDS011;6196;48.398;11.736;2023-03-26T06:39:14;4.40;;;1.80;;
12267;SDS011;6196;48.398;11.736;2023-03-26T06:41:41;3.90;;;1.63;;
12267;SDS011;6196;48.398;11.736;2023-03-26T06:44:08;4.17;;;1.63;;
12267;SDS011;6196;48.398;11.736;2023-03-26T06:46:36;4.57;;;2.13;;
12267;SDS011;6196;48.398;11.736;2023-03-26T06:49:03;4.90;;;2.00;;
12267;SDS011;6196;48.398;11.736;2023-03-26T06:51:30;5.30;;;1.90;;
12267;SDS011;6196;48.398;11.736;2023-03-26T06:53:56;3.20;;;1.73;;
12267;SDS011;6196;48.398;11.736;2023-03-26T06:56:23;6.03;;;2.30;;
12267;SDS011;6196;48.398;11.736;2023-03-26T06:58:50;5.13;;;1.80;;
12267;SDS011;6196;48.398;11.736;2023-03-26T07:01:17;4.27;;;1.57;;
12267;SDS011;6196;48.398;11.736;2023-03-26T07:03:44;3.77;;;1.60;;
12267;SDS011;6196;48.398;11.736;2023-03-26T07:06:11;4.07;;;1.60;;
12267;SDS011;6196;48.398;11.736;2023-03-26T07:08:37;4.40;;;1.60;;
12267;SDS011;6196;48.398;11.736;2023-03-26T07:11:04;4.57;;;1.60;;
12267;SDS011;6196;48.398;11.736;2023-03-26T07:13:31;5.87;;;2.40;;
12267;SDS011;6196;48.398;11.736;2023-03-26T07:15:58;5.80;;;2.53;;
12267;SDS011;6196;48.398;11.736;2023-03-26T07:18:25;5.13;;;2.20;;
12267;SDS011;6196;48.398;11.736;2023-03-26T07:20:52;4.13;;;1.73;;
12267;SDS011;6196;48.398;11.736;2023-03-26T07:23:20;5.47;;;1.90;;
12267;SDS011;6196;48.398;11.736;2023-03-26T07:25:47;4.20;;;1.93;;
12267;SDS011;6196;48.398;11.736;2023-03-26T07:28:33;4.23;;;1.80;;
12267;SDS011;6196;48.398;11.736;2023-03-26T07:31:34;4.07;;;2.00;;
12267;SDS011;6196;48.398;11.736;2023-03-26T07:37:09;3.90;;;1.77;;
12267;SDS011;6196;48.398;11.736;2023-03-26T07:40:10;6.30;;;2.27;;
12267;SDS011;6196;48.398;11.736;2023-03-26T07:45:55;3.80;;;1.80;;
12267;SDS011;6196;48.398;11.736;2023-03-26T07:48:23;7.27;;;1.90;;
12267;SDS011;6196;48.398;11.736;2023-03-26T07:50:53;3.90;;;1.80;;
12267;SDS011;6196;48.398;11.736;2023-03-26T07:53:22;4.30;;;1.90;;
12267;SDS011;6196;48.398;11.736;2023-03-26T07:55:53;6.03;;;2.00;;
12267;SDS011;6196;48.398;11.736;2023-03-26T07:58:39;3.23;;;1.60;;
12267;SDS011;6196;48.398;11.736;2023-03-26T08:04:44;4.50;;;1.77;;
12267;SDS011;6196;48.398;11.736;2023-03-26T08:10:25;6.13;;;1.90;;
12267;SDS011;6196;48.398;11.736;2023-03-26T08:13:29;4.57;;;1.90;;
12267;SDS011;6196;48.398;11.736;2023-03-26T08:16:18;4.90;;;1.70;;
12267;SDS011;6196;48.398;11.736;2023-03-26T08:18:56;6.00;;;1.67;;
12267;SDS011;6196;48.398;11.736;2023-03-26T08:21:50;3.60;;;1.30;;
12267;SDS011;6196;48.398;11.736;2023-03-26T08:27:39;5.50;;;1.90;;
12267;SDS011;6196;48.398;11.736;2023-03-26T08:30:18;3.13;;;1.37;;
12267;SDS011;6196;48.398;11.736;2023-03-26T08:32:58;4.87;;;1.53;;
12267;SDS011;6196;48.398;11.736;2023-03-26T08:35:38;6.43;;;1.60;;
12267;SDS011;6196;48.398;11.736;2023-03-26T08:38:08;4.90;;;1.70;;
12267;SDS011;6196;48.398;11.736;2023-03-26T08:49:41;4.47;;;1.17;;
12267;SDS011;6196;48.398;11.736;2023-03-26T08:52:50;4.83;;;1.50;;
12267;SDS011;6196;48.398;11.736;2023-03-26T08:55:51;6.13;;;1.40;;
12267;SDS011;6196;48.398;11.736;2023-03-26T08:58:36;3.77;;;1.30;;
12267;SDS011;6196;48.398;11.736;2023-03-26T09:07:08;4.87;;;1.37;;
12267;SDS011;6196;48.398;11.736;2023-03-26T09:13:19;3.73;;;1.17;;
12267;SDS011;6196;48.398;11.736;2023-03-26T09:22:57;5.80;;;1.23;;
12267;SDS011;6196;48.398;11.736;2023-03-26T09:38:30;5.07;;;1.50;;
12267;SDS011;6196;48.398;11.736;2023-03-26T09:52:53;6.13;;;1.40;;
12267;SDS011;6196;48.398;11.736;2023-03-26T10:01:38;6.93;;;1.63;;
12267;SDS011;6196;48.398;11.736;2023-03-26T10:07:38;6.30;;;1.73;;
12267;SDS011;6196;48.398;11.736;2023-03-26T10:10:18;5.30;;;1.23;;
12267;SDS011;6196;48.398;11.736;2023-03-26T10:22:02;4.17;;;1.40;;
12267;SDS011;6196;48.398;11.736;2023-03-26T10:27:52;4.27;;;1.37;;
12267;SDS011;6196;48.398;11.736;2023-03-26T10:44:32;3.50;;;1.53;;
12267;SDS011;6196;48.398;11.736;2023-03-26T10:53:36;4.77;;;1.80;;
12267;SDS011;6196;48.398;11.736;2023-03-26T10:59:06;5.50;;;2.00;;
12267;SDS011;6196;48.398;11.736;2023-03-26T11:10:03;6.23;;;2.00;;
12267;SDS011;6196;48.398;11.736;2023-03-26T11:12:52;2.90;;;1.60;;
12267;SDS011;6196;48.398;11.736;2023-03-26T11:16:02;4.60;;;1.57;;
12267;SDS011;6196;48.398;11.736;2023-03-26T11:18:43;6.17;;;1.90;;
12267;SDS011;6196;48.398;11.736;2023-03-26T11:21:56;3.53;;;1.80;;
12267;SDS011;6196;48.398;11.736;2023-03-26T11:30:02;3.23;;;1.80;;
12267;SDS011;6196;48.398;11.736;2023-03-26T11:32:51;5.83;;;2.00;;
12267;SDS011;6196;48.398;11.736;2023-03-26T11:35:29;7.73;;;2.57;;
12267;SDS011;6196;48.398;11.736;2023-03-26T11:40:49;6.80;;;2.10;;
12267;SDS011;6196;48.398;11.736;2023-03-26T11:43:28;4.20;;;1.73;;
12267;SDS011;6196;48.398;11.736;2023-03-26T11:46:05;6.50;;;2.20;;
12267;SDS011;6196;48.398;11.736;2023-03-26T11:48:41;6.17;;;1.90;;
12267;SDS011;6196;48.398;11.736;2023-03-26T11:51:21;5.27;;;1.77;;
12267;SDS011;6196;48.398;11.736;2023-03-26T11:53:56;6.00;;;1.83;;
12267;SDS011;6196;48.398;11.736;2023-03-26T11:56:34;3.93;;;1.70;;
12267;SDS011;6196;48.398;11.736;2023-03-26T11:59:33;4.33;;;1.60;;
12267;SDS011;6196;48.398;11.736;2023-03-26T12:02:28;4.40;;;2.03;;
12267;SDS011;6196;48.398;11.736;2023-03-26T12:05:10;4.37;;;1.60;;
12267;SDS011;6196;48.398;11.736;2023-03-26T12:07:57;3.77;;;1.30;;
12267;SDS011;6196;48.398;11.736;2023-03-26T12:10:28;2.63;;;1.07;;
12267;SDS011;6196;48.398;11.736;2023-03-26T12:15:57;1.73;;;1.00;;
12267;SDS011;6196;48.398;11.736;2023-03-26T12:18:31;1.20;;;0.70;;
12267;SDS011;6196;48.398;11.736;2023-03-26T12:21:03;2.87;;;1.00;;
12267;SDS011;6196;48.398;11.736;2023-03-26T12:23:58;1.60;;;0.80;;
12267;SDS011;6196;48.398;11.736;2023-03-26T12:29:11;1.80;;;0.67;;
12267;SDS011;6196;48.398;11.736;2023-03-26T12:31:44;2.07;;;0.67;;
12267;SDS011;6196;48.398;11.736;2023-03-26T12:34:33;1.13;;;0.60;;
12267;SDS011;6196;48.398;11.736;2023-03-26T12:37:03;1.60;;;0.70;;
12267;SDS011;6196;48.398;11.736;2023-03-26T12:39:34;1.37;;;0.60;;
12267;SDS011;6196;48.398;11.736;2023-03-26T12:42:30;0.70;;;0.50;;
12267;SDS011;6196;48.398;11.736;2023-03-26T12:45:37;1.60;;;0.60;;
12267;SDS011;6196;48.398;11.736;2023-03-26T12:48:11;2.20;;;1.23;;
12267;SDS011;6196;48.398;11.736;2023-03-26T12:53:52;1.83;;;1.13;;
12267;SDS011;6196;48.398;11.736;2023-03-26T12:56:37;1.10;;;0.60;;
12267;SDS011;6196;48.398;11.736;2023-03-26T12:59:47;0.70;;;0.70;;
12267;SDS011;6196;48.398;11.736;2023-03-26T13:05:43;1.20;;;0.70;;
12267;SDS011;6196;48.398;11.736;2023-03-26T13:17:51;1.60;;;0.47;;
12267;SDS011;6196;48.398;11.736;2023-03-26T13:28:51;0.60;;;0.33;;
12267;SDS011;6196;48.398;11.736;2023-03-26T13:31:43;0.40;;;0.30;;
12267;SDS011;6196;48.398;11.736;2023-03-26T13:39:52;0.30;;;0.20;;
12267;SDS011;6196;48.398;11.736;2023-03-26T13:43:31;0.20;;;0.20;;
12267;SDS011;6196;48.398;11.736;2023-03-26T13:46:05;0.93;;;0.40;;
12267;SDS011;6196;48.398;11.736;2023-03-26T13:48:51;0.43;;;0.23;;
12267;SDS011;6196;48.398;11.736;2023-03-26T13:51:39;0.20;;;0.20;;
12267;SDS011;6196;48.398;11.736;2023-03-26T13:54:31;0.30;;;0.30;;
12267;SDS011;6196;48.398;11.736;2023-03-26T13:57:27;0.20;;;0.20;;
12267;SDS011;6196;48.398;11.736;2023-03-26T14:00:04;0.40;;;0.30;;
12267;SDS011;6196;48.398;11.736;2023-03-26T14:02:52;0.77;;;0.40;;
12267;SDS011;6196;48.398;11.736;2023-03-26T14:05:32;0.97;;;0.40;;
12267;SDS011;6196;48.398;11.736;2023-03-26T14:08:16;0.70;;;0.30;;
12267;SDS011;6196;48.398;11.736;2023-03-26T14:11:00;0.73;;;0.33;;
12267;SDS011;6196;48.398;11.736;2023-03-26T14:13:37;0.97;;;0.50;;
12267;SDS011;6196;48.398;11.736;2023-03-26T14:16:24;0.77;;;0.50;;
12267;SDS011;6196;48.398;11.736;2023-03-26T14:21:48;0.97;;;0.47;;
12267;SDS011;6196;48.398;11.736;2023-03-26T14:24:44;0.77;;;0.40;;
12267;SDS011;6196;48.398;11.736;2023-03-26T14:36:16;1.33;;;0.60;;
12267;SDS011;6196;48.398;11.736;2023-03-26T14:42:06;1.37;;;0.60;;
12267;SDS011;6196;48.398;11.736;2023-03-26T14:53:59;1.57;;;1.30;;
12267;SDS011;6196;48.398;11.736;2023-03-26T14:56:37;1.53;;;0.60;;
12267;SDS011;6196;48.398;11.736;2023-03-26T15:41:37;1.13;;;0.40;;
12267;SDS011;6196;48.398;11.736;2023-03-26T15:46:59;1.80;;;0.70;;
12267;SDS011;6196;48.398;11.736;2023-03-26T15:52:54;2.03;;;0.50;;
12267;SDS011;6196;48.398;11.736;2023-03-26T15:55:54;1.17;;;0.67;;
12267;SDS011;6196;48.398;11.736;2023-03-26T16:07:35;1.30;;;0.73;;
12267;SDS011;6196;48.398;11.736;2023-03-26T16:10:24;1.63;;;0.80;;
12267;SDS011;6196;48.398;11.736;2023-03-26T16:32:25;1.87;;;0.80;;
12267;SDS011;6196;48.398;11.736;2023-03-26T16:37:32;1.17;;;1.03;;
12267;SDS011;6196;48.398;11.736;2023-03-26T16:54:38;2.20;;;2.00;;
12267;SDS011;6196;48.398;11.736;2023-03-26T16:57:22;2.30;;;1.27;;
12267;SDS011;6196;48.398;11.736;2023-03-26T17:18:26;2.10;;;1.30;;
12267;SDS011;6196;48.398;11.736;2023-03-26T17:21:17;1.73;;;1.33;;
12267;SDS011;6196;48.398;11.736;2023-03-26T17:29:55;2.07;;;1.03;;
12267;SDS011;6196;48.398;11.736;2023-03-26T17:32:50;2.83;;;2.40;;
12267;SDS011;6196;48.398;11.736;2023-03-26T17:35:34;2.07;;;1.13;;
12267;SDS011;6196;48.398;11.736;2023-03-26T17:38:52;1.50;;;0.80;;
12267;SDS011;6196;48.398;11.736;2023-03-26T17:40:56;2.17;;;1.10;;
12267;SDS011;6196;48.398;11.736;2023-03-26T17:46:03;1.03;;;0.90;;
12267;SDS011;6196;48.398;11.736;2023-03-26T17:49:00;2.23;;;1.53;;
12267;SDS011;6196;48.398;11.736;2023-03-26T17:51:48;2.83;;;1.00;;
12267;SDS011;6196;48.398;11.736;2023-03-26T17:54:47;1.77;;;1.00;;
12267;SDS011;6196;48.398;11.736;2023-03-26T17:57:25;1.07;;;0.90;;
12267;SDS011;6196;48.398;11.736;2023-03-26T17:59:58;2.30;;;0.90;;
12267;SDS011;6196;48.398;11.736;2023-03-26T18:02:36;2.60;;;0.70;;
12267;SDS011;6196;48.398;11.736;2023-03-26T18:05:08;1.97;;;1.00;;
12267;SDS011;6196;48.398;11.736;2023-03-26T18:11:05;0.83;;;0.60;;
12267;SDS011;6196;48.398;11.736;2023-03-26T18:16:59;2.13;;;0.77;;
12267;SDS011;6196;48.398;11.736;2023-03-26T18:19:27;0.83;;;0.50;;
12267;SDS011;6196;48.398;11.736;2023-03-26T18:21:57;0.60;;;0.50;;
12267;SDS011;6196;48.398;11.736;2023-03-26T18:24:30;0.70;;;0.40;;
12267;SDS011;6196;48.398;11.736;2023-03-26T18:27:06;0.33;;;0.33;;
12267;SDS011;6196;48.398;11.736;2023-03-26T18:29:45;0.47;;;0.40;;
12267;SDS011;6196;48.398;11.736;2023-03-26T18:32:35;0.50;;;0.40;;
12267;SDS011;6196;48.398;11.736;2023-03-26T18:35:18;0.30;;;0.30;;
12267;SDS011;6196;48.398;11.736;2023-03-26T18:37:47;1.60;;;0.57;;
12267;SDS011;6196;48.398;11.736;2023-03-26T18:40:19;1.37;;;0.50;;
12267;SDS011;6196;48.398;11.736;2023-03-26T18:45:31;1.60;;;0.60;;
12267;SDS011;6196;48.398;11.736;2023-03-26T18:48:05;1.13;;;0.60;;
12267;SDS011;6196;48.398;11.736;2023-03-26T18:50:46;0.40;;;0.40;;
12267;SDS011;6196;48.398;11.736;2023-03-26T18:53:20;0.60;;;0.50;;
12267;SDS011;6196;48.398;11.736;2023-03-26T18:56:19;1.10;;;0.43;;
12267;SDS011;6196;48.398;11.736;2023-03-26T18:58:57;0.90;;;0.40;;
12267;SDS011;6196;48.398;11.736;2023-03-26T19:01:26;1.10;;;0.40;;
12267;SDS011;6196;48.398;11.736;2023-03-26T19:03:59;0.77;;;0.40;;
12267;SDS011;6196;48.398;11.736;2023-03-26T19:06:30;0.47;;;0.40;;
12267;SDS011;6196;48.398;11.736;2023-03-26T19:09:04;0.30;;;0.30;;
12267;SDS011;6196;48.398;11.736;2023-03-26T19:11:45;0.50;;;0.40;;
12267;SDS011;6196;48.398;11.736;2023-03-26T19:14:24;0.73;;;0.50;;
12267;SDS011;6196;48.398;11.736;2023-03-26T19:16:59;0.80;;;0.30;;
12267;SDS011;6196;48.398;11.736;2023-03-26T19:19:31;0.67;;;0.30;;
12267;SDS011;6196;48.398;11.736;2023-03-26T19:22:02;0.40;;;0.40;;
12267;SDS011;6196;48.398;11.736;2023-03-26T19:24:31;0.60;;;0.40;;
12267;SDS011;6196;48.398;11.736;2023-03-26T19:26:58;1.60;;;0.50;;
12267;SDS011;6196;48.398;11.736;2023-03-26T19:29:27;1.73;;;0.40;;
12267;SDS011;6196;48.398;11.736;2023-03-26T19:32:04;0.73;;;0.47;;
12267;SDS011;6196;48.398;11.736;2023-03-26T19:34:58;1.23;;;0.50;;
12267;SDS011;6196;48.398;11.736;2023-03-26T19:37:27;0.57;;;0.57;;
12267;SDS011;6196;48.398;11.736;2023-03-26T19:39:59;0.90;;;0.50;;
12267;SDS011;6196;48.398;11.736;2023-03-26T19:42:39;1.73;;;0.40;;
12267;SDS011;6196;48.398;11.736;2023-03-26T19:45:19;0.50;;;0.47;;
12267;SDS011;6196;48.398;11.736;2023-03-26T19:47:48;1.10;;;0.50;;
12267;SDS011;6196;48.398;11.736;2023-03-26T19:50:33;0.93;;;0.60;;
12267;SDS011;6196;48.398;11.736;2023-03-26T19:53:10;1.43;;;0.50;;
12267;SDS011;6196;48.398;11.736;2023-03-26T19:55:51;0.70;;;0.40;;
12267;SDS011;6196;48.398;11.736;2023-03-26T19:58:43;1.27;;;0.63;;
12267;SDS011;6196;48.398;11.736;2023-03-26T20:01:21;1.93;;;0.60;;
12267;SDS011;6196;48.398;11.736;2023-03-26T20:03:53;1.10;;;0.67;;
12267;SDS011;6196;48.398;11.736;2023-03-26T20:06:23;0.40;;;0.40;;
12267;SDS011;6196;48.398;11.736;2023-03-26T20:09:09;0.70;;;0.57;;
12267;SDS011;6196;48.398;11.736;2023-03-26T20:11:37;2.00;;;0.80;;
12267;SDS011;6196;48.398;11.736;2023-03-26T20:14:38;1.43;;;0.73;;
12267;SDS011;6196;48.398;11.736;2023-03-26T20:16:58;1.00;;;0.70;;
12267;SDS011;6196;48.398;11.736;2023-03-26T20:19:25;1.43;;;0.60;;
12267;SDS011;6196;48.398;11.736;2023-03-26T20:21:52;0.80;;;0.67;;
12267;SDS011;6196;48.398;11.736;2023-03-26T20:24:19;0.70;;;0.70;;
12267;SDS011;6196;48.398;11.736;2023-03-26T20:26:46;0.90;;;0.90;;
12267;SDS011;6196;48.398;11.736;2023-03-26T20:29:14;1.43;;;0.80;;
12267;SDS011;6196;48.398;11.736;2023-03-26T20:31:41;0.97;;;0.80;;
12267;SDS011;6196;48.398;11.736;2023-03-26T20:34:16;2.33;;;1.00;;
12267;SDS011;6196;48.398;11.736;2023-03-26T20:36:47;1.27;;;0.80;;
12267;SDS011;6196;48.398;11.736;2023-03-26T20:39:23;0.93;;;0.80;;
12267;SDS011;6196;48.398;11.736;2023-03-26T20:41:51;1.17;;;0.80;;
12267;SDS011;6196;48.398;11.736;2023-03-26T20:44:19;4.30;;;1.10;;
12267;SDS011;6196;48.398;11.736;2023-03-26T20:46:47;1.57;;;1.00;;
12267;SDS011;6196;48.398;11.736;2023-03-26T20:49:15;1.83;;;1.00;;
12267;SDS011;6196;48.398;11.736;2023-03-26T20:51:43;2.03;;;1.00;;
12267;SDS011;6196;48.398;11.736;2023-03-26T20:54:14;1.37;;;1.00;;
12267;SDS011;6196;48.398;11.736;2023-03-26T20:56:50;2.90;;;1.07;;
12267;SDS011;6196;48.398;11.736;2023-03-26T20:59:20;1.30;;;1.00;;
12267;SDS011;6196;48.398;11.736;2023-03-26T21:01:51;1.10;;;0.80;;
12267;SDS011;6196;48.398;11.736;2023-03-26T21:04:19;1.40;;;0.83;;
12267;SDS011;6196;48.398;11.736;2023-03-26T21:06:47;1.33;;;0.93;;